createdAt,value
2018-07-04T00:02:34.476Z,14.23
2018-07-04T00:05:20.940Z,15.27
2018-07-04T00:08:07.568Z,15.63
2018-07-04T00:10:54.160Z,14.90
2018-07-04T00:13:40.788Z,15.87
2018-07-04T00:16:27.416Z,15.20
2018-07-04T00:19:14.020Z,15.63
2018-07-04T00:22:00.665Z,16.50
2018-07-04T00:24:47.218Z,16.10
2018-07-04T00:27:33.870Z,15.80
2018-07-04T00:30:20.509Z,16.23
2018-07-04T00:33:07.205Z,15.73
2018-07-04T00:35:53.860Z,15.27
2018-07-04T00:38:40.467Z,16.00
2018-07-04T00:41:27.132Z,16.73
2018-07-04T00:44:13.657Z,17.07
2018-07-04T00:47:00.209Z,16.73
2018-07-04T00:49:46.773Z,16.53
2018-07-04T00:52:33.455Z,16.67
2018-07-04T00:55:19.976Z,16.87
2018-07-04T00:58:06.516Z,17.23
2018-07-04T01:00:53.089Z,16.87
2018-07-04T01:03:40.064Z,17.13
2018-07-04T01:06:26.583Z,17.00
2018-07-04T01:09:13.189Z,16.13
2018-07-04T01:11:59.857Z,14.53
2018-07-04T01:14:46.359Z,15.03
2018-07-04T01:17:33.001Z,15.70
2018-07-04T01:20:19.660Z,14.50
2018-07-04T01:23:06.328Z,14.10
2018-07-04T01:25:52.820Z,13.77
2018-07-04T01:28:44.683Z,15.17
2018-07-04T01:31:31.287Z,13.83
2018-07-04T01:34:18.630Z,15.30
2018-07-04T01:37:05.164Z,15.40
2018-07-04T01:39:51.855Z,18.60
2018-07-04T01:42:38.350Z,17.23
2018-07-04T01:45:25.144Z,16.67
2018-07-04T01:48:11.724Z,17.90
2018-07-04T01:50:58.356Z,16.73
2018-07-04T01:53:45.021Z,16.27
2018-07-04T01:56:31.425Z,16.57
2018-07-04T01:59:18.337Z,16.33
2018-07-04T02:02:04.892Z,17.07
2018-07-04T02:04:51.508Z,18.07
2018-07-04T02:07:38.157Z,16.73
2018-07-04T02:10:24.768Z,17.17
2018-07-04T02:13:11.364Z,18.60
2018-07-04T02:15:58.040Z,17.33
2018-07-04T02:18:44.471Z,18.87
2018-07-04T02:21:31.368Z,18.00
2018-07-04T02:24:18.300Z,17.83
2018-07-04T02:27:05.072Z,16.87
2018-07-04T02:29:51.597Z,17.90
2018-07-04T02:32:38.228Z,18.40
2018-07-04T02:35:24.921Z,18.77
2018-07-04T02:38:11.649Z,20.13
2018-07-04T02:40:58.084Z,19.33
2018-07-04T02:43:44.729Z,19.43
2018-07-04T02:46:40.456Z,19.90
2018-07-04T02:49:26.965Z,20.33
2018-07-04T02:52:13.629Z,18.97
2018-07-04T02:55:00.307Z,18.37
2018-07-04T02:57:46.996Z,19.20
2018-07-04T03:00:33.660Z,20.63
2018-07-04T03:03:20.197Z,19.63
2018-07-04T03:06:06.903Z,18.53
2018-07-04T03:08:53.484Z,19.03
2018-07-04T03:11:40.103Z,17.80
2018-07-04T03:14:26.760Z,17.03
2018-07-04T03:17:13.246Z,16.33
2018-07-04T03:19:59.834Z,16.20
2018-07-04T03:22:46.328Z,16.90
2018-07-04T03:25:32.973Z,15.13
2018-07-04T03:28:19.647Z,15.53
2018-07-04T03:31:06.392Z,15.57
2018-07-04T03:33:53.064Z,14.40
2018-07-04T03:36:39.600Z,15.23
2018-07-04T03:39:26.243Z,14.73
2018-07-04T03:42:12.780Z,14.43
2018-07-04T03:44:59.472Z,14.40
2018-07-04T03:47:45.968Z,14.80
2018-07-04T03:50:32.678Z,14.07
2018-07-04T03:53:19.344Z,14.87
2018-07-04T03:56:06.016Z,15.27
2018-07-04T03:58:52.520Z,15.93
2018-07-04T04:01:39.212Z,16.13
2018-07-04T04:04:25.822Z,17.13
2018-07-04T04:07:12.455Z,18.97
2018-07-04T04:09:59.116Z,18.07
2018-07-04T04:12:45.760Z,16.87
2018-07-04T04:15:32.325Z,16.67
2018-07-04T04:18:19.112Z,16.67
2018-07-04T04:21:05.796Z,16.73
2018-07-04T04:23:52.632Z,17.27
2018-07-04T04:26:39.341Z,17.50
2018-07-04T04:29:25.820Z,17.70
2018-07-04T04:32:12.566Z,15.53
2018-07-04T04:34:59.236Z,15.83
2018-07-04T04:37:45.732Z,16.57
2018-07-04T04:40:32.407Z,17.03
2018-07-04T04:43:19.022Z,15.87
2018-07-04T04:46:05.672Z,16.57
2018-07-04T04:48:52.289Z,17.43
2018-07-04T04:51:38.974Z,16.80
2018-07-04T04:54:25.725Z,14.97
2018-07-04T04:57:12.319Z,15.53
2018-07-04T04:59:58.885Z,15.67
2018-07-04T05:02:45.615Z,15.73
2018-07-04T05:05:32.164Z,15.33
2018-07-04T05:08:18.713Z,16.13
2018-07-04T05:11:05.359Z,14.40
2018-07-04T05:13:52.100Z,14.67
2018-07-04T05:16:38.684Z,13.70
2018-07-04T05:19:25.194Z,13.07
2018-07-04T05:22:11.894Z,12.53
2018-07-04T05:24:58.365Z,12.33
2018-07-04T05:27:45.091Z,13.80
2018-07-04T05:30:31.640Z,12.37
2018-07-04T05:33:18.356Z,12.63
2018-07-04T05:36:04.904Z,12.03
2018-07-04T05:38:51.495Z,12.47
2018-07-04T05:41:38.156Z,13.60
2018-07-04T05:44:24.729Z,13.87
2018-07-04T05:47:11.092Z,12.90
2018-07-04T05:49:57.711Z,12.37
2018-07-04T05:52:44.317Z,11.83
2018-07-04T05:55:30.980Z,12.27
2018-07-04T05:58:17.728Z,11.87
2018-07-04T06:01:04.240Z,12.23
2018-07-04T06:03:50.868Z,12.87
2018-07-04T06:06:37.548Z,15.80
2018-07-04T06:09:24.198Z,13.03
2018-07-04T06:12:10.820Z,12.70
2018-07-04T06:14:57.580Z,12.47
2018-07-04T06:17:44.061Z,12.00
2018-07-04T06:20:30.741Z,13.73
2018-07-04T06:23:17.396Z,12.53
2018-07-04T06:26:04.044Z,14.13
2018-07-04T06:28:50.728Z,13.63
2018-07-04T06:31:37.284Z,13.07
2018-07-04T06:34:23.845Z,12.57
2018-07-04T06:37:10.556Z,12.90
2018-07-04T06:39:44.840Z,13.47
2018-07-04T06:42:13.038Z,14.70
2018-07-04T06:44:41.399Z,13.30
2018-07-04T06:47:09.541Z,12.53
2018-07-04T06:49:37.636Z,13.03
2018-07-04T06:52:05.835Z,12.30
2018-07-04T06:54:34.037Z,11.97
2018-07-04T06:57:02.076Z,12.00
2018-07-04T06:59:30.208Z,12.10
2018-07-04T07:02:15.703Z,11.30
2018-07-04T07:04:57.399Z,10.83
2018-07-04T07:07:43.906Z,11.73
2018-07-04T07:10:30.596Z,12.20
2018-07-04T07:13:17.085Z,11.80
2018-07-04T07:16:03.754Z,12.20
2018-07-04T07:18:50.370Z,12.37
2018-07-04T07:21:37.064Z,12.53
2018-07-04T07:24:23.696Z,12.13
2018-07-04T07:27:10.387Z,12.90
2018-07-04T07:29:56.948Z,11.77
2018-07-04T07:32:43.673Z,12.93
2018-07-04T07:35:30.288Z,12.80
2018-07-04T07:38:16.949Z,13.33
2018-07-04T07:41:03.688Z,13.93
2018-07-04T07:43:50.273Z,13.17
2018-07-04T07:46:37.071Z,14.97
2018-07-04T07:49:23.768Z,13.13
2018-07-04T07:52:10.531Z,13.10
2018-07-04T07:54:57.225Z,12.00
2018-07-04T07:57:43.791Z,12.60
2018-07-04T08:00:30.425Z,12.03
2018-07-04T08:03:17.043Z,11.37
2018-07-04T08:06:03.508Z,11.43
2018-07-04T08:08:50.132Z,11.17
2018-07-04T08:11:36.820Z,12.30
2018-07-04T08:14:23.489Z,11.27
2018-07-04T08:17:10.281Z,11.33
2018-07-04T08:19:56.792Z,12.47
2018-07-04T08:22:43.288Z,13.03
2018-07-04T08:25:29.800Z,12.80
2018-07-04T08:28:16.532Z,14.07
2018-07-04T08:31:03.200Z,13.97
2018-07-04T08:33:49.664Z,13.67
2018-07-04T08:36:36.212Z,14.33
2018-07-04T08:39:22.925Z,13.83
2018-07-04T08:42:09.421Z,14.03
2018-07-04T08:44:56.076Z,14.40
2018-07-04T08:47:42.725Z,15.50
2018-07-04T08:50:29.263Z,14.60
2018-07-04T08:53:16.017Z,14.07
2018-07-04T08:56:02.592Z,15.30
2018-07-04T08:58:49.125Z,14.40
2018-07-04T09:01:35.665Z,16.10
2018-07-04T09:04:22.187Z,14.17
2018-07-04T09:07:08.844Z,14.93
2018-07-04T09:09:55.520Z,14.53
2018-07-04T09:12:42.037Z,15.43
2018-07-04T09:15:28.468Z,16.13
2018-07-04T09:18:15.018Z,17.43
2018-07-04T09:21:01.878Z,17.93
2018-07-04T09:23:48.529Z,16.70
2018-07-04T09:26:35.068Z,16.93
2018-07-04T09:29:21.756Z,16.83
2018-07-04T09:32:08.445Z,17.00
2018-07-04T09:34:55.006Z,16.23
2018-07-04T09:37:41.626Z,16.50
2018-07-04T09:40:28.259Z,16.20
2018-07-04T09:43:14.957Z,16.53
2018-07-04T09:46:01.627Z,15.53
2018-07-04T09:48:48.240Z,14.90
2018-07-04T09:51:34.770Z,15.60
2018-07-04T09:54:21.448Z,16.20
2018-07-04T09:57:08.040Z,17.83
2018-07-04T09:59:54.588Z,17.00
2018-07-04T10:02:41.117Z,15.00
2018-07-04T10:05:27.868Z,15.07
2018-07-04T10:08:14.388Z,14.97
2018-07-04T10:11:01.124Z,15.90
2018-07-04T10:13:47.585Z,16.80
2018-07-04T10:16:34.192Z,16.48
2018-07-04T10:19:20.856Z,15.47
2018-07-04T10:22:07.531Z,13.38
2018-07-04T10:24:54.209Z,14.30
2018-07-04T10:27:40.787Z,14.30
2018-07-04T10:30:27.264Z,14.27
2018-07-04T10:33:13.940Z,12.95
2018-07-04T10:36:00.460Z,13.55
2018-07-04T10:38:47.084Z,14.60
2018-07-04T10:41:33.688Z,14.20
2018-07-04T10:44:20.328Z,14.07
2018-07-04T10:47:06.877Z,13.37
2018-07-04T10:49:53.584Z,14.13
2018-07-04T10:52:40.044Z,14.77
2018-07-04T10:55:26.545Z,14.77
2018-07-04T10:58:13.180Z,14.97
2018-07-04T11:00:59.856Z,15.90
2018-07-04T11:03:46.632Z,14.80
2018-07-04T11:06:33.164Z,15.33
2018-07-04T11:09:19.911Z,14.93
2018-07-04T11:12:06.560Z,15.17
2018-07-04T11:14:53.233Z,16.57
2018-07-04T11:17:39.792Z,16.37
2018-07-04T11:20:26.489Z,17.00
2018-07-04T11:23:13.254Z,16.55
2018-07-04T11:25:59.857Z,15.87
2018-07-04T11:28:47.660Z,15.30
2018-07-04T11:31:34.313Z,15.53
2018-07-04T11:34:21.008Z,14.85
2018-07-04T11:37:07.509Z,16.20
2018-07-04T11:39:54.165Z,15.95
2018-07-04T11:42:40.804Z,15.40
2018-07-04T11:45:27.448Z,15.60
2018-07-04T11:48:01.760Z,16.50
2018-07-04T11:50:29.925Z,15.77
2018-07-04T11:52:57.992Z,15.80
2018-07-04T11:55:26.198Z,16.70
2018-07-04T11:57:54.301Z,17.47
2018-07-04T12:00:22.384Z,17.50
2018-07-04T12:02:50.601Z,16.62
2018-07-04T12:05:31.031Z,17.03
2018-07-04T12:08:05.290Z,17.60
2018-07-04T12:10:33.388Z,17.02
2018-07-04T12:13:01.484Z,17.60
2018-07-04T12:15:29.598Z,18.57
2018-07-04T12:17:57.675Z,19.70
2018-07-04T12:20:25.771Z,17.80
2018-07-04T12:22:53.845Z,18.40
2018-07-04T12:25:21.952Z,19.00
2018-07-04T12:27:50.016Z,17.45
2018-07-04T12:30:18.124Z,19.67
2018-07-04T12:32:46.233Z,17.67
2018-07-04T12:35:14.348Z,17.17
2018-07-04T12:37:42.521Z,17.10
2018-07-04T12:40:10.622Z,17.17
2018-07-04T12:42:38.820Z,17.23
2018-07-04T12:45:06.924Z,16.60
2018-07-04T12:47:35.042Z,16.07
2018-07-04T12:50:03.192Z,15.57
2018-07-04T12:52:37.410Z,16.27
2018-07-04T12:55:17.789Z,14.47
2018-07-04T12:58:04.348Z,14.85
2018-07-04T13:00:51.115Z,15.40
2018-07-04T13:03:37.665Z,15.10
2018-07-04T13:06:24.326Z,14.98
2018-07-04T13:09:10.900Z,14.58
2018-07-04T13:11:57.565Z,16.00
2018-07-04T13:14:44.476Z,14.87
2018-07-04T13:17:32.048Z,14.55
2018-07-04T13:20:18.696Z,13.55
2018-07-04T13:23:05.453Z,14.35
2018-07-04T13:25:52.095Z,14.87
2018-07-04T13:28:38.744Z,14.65
2018-07-04T13:31:25.279Z,14.43
2018-07-04T13:34:11.828Z,14.33
2018-07-04T13:36:58.444Z,14.15
2018-07-04T13:39:45.209Z,13.93
2018-07-04T13:42:31.818Z,14.40
2018-07-04T13:45:18.491Z,13.53
2018-07-04T13:48:05.089Z,13.85
2018-07-04T13:50:51.540Z,13.72
2018-07-04T13:53:38.088Z,13.87
2018-07-04T13:56:24.809Z,8.87
2018-07-04T13:59:11.413Z,8.10
2018-07-04T14:01:57.974Z,9.20
2018-07-04T14:04:44.542Z,8.23
2018-07-04T14:07:31.172Z,6.03
2018-07-04T14:10:18.212Z,6.70
2018-07-04T14:13:04.901Z,6.60
2018-07-04T14:15:51.516Z,6.73
2018-07-04T14:18:39.057Z,7.00
2018-07-04T14:21:27.064Z,9.10
2018-07-04T14:24:13.701Z,8.80
2018-07-04T14:27:00.280Z,9.20
2018-07-04T14:29:46.933Z,8.17
2018-07-04T14:32:33.514Z,7.27
2018-07-04T14:35:20.048Z,7.00
2018-07-04T14:38:06.686Z,7.40
2018-07-04T14:40:53.432Z,7.53
2018-07-04T14:43:39.941Z,7.60
2018-07-04T14:46:26.615Z,8.00
2018-07-04T14:49:13.120Z,8.00
2018-07-04T14:51:59.805Z,6.70
2018-07-04T14:54:46.684Z,6.70
2018-07-04T14:57:33.191Z,6.63
2018-07-04T15:00:19.624Z,7.27
2018-07-04T15:03:06.296Z,7.67
2018-07-04T15:05:53.143Z,7.10
2018-07-04T15:08:39.833Z,6.60
2018-07-04T15:11:26.420Z,6.87
2018-07-04T15:14:12.927Z,6.93
2018-07-04T15:16:59.724Z,6.87
2018-07-04T15:19:46.228Z,6.90
2018-07-04T15:22:32.884Z,5.80
2018-07-04T15:25:19.392Z,6.70
2018-07-04T15:28:05.939Z,12.23
2018-07-04T15:30:52.692Z,14.30
2018-07-04T15:33:39.296Z,7.80
2018-07-04T15:36:25.800Z,9.50
2018-07-04T15:39:12.304Z,7.93
2018-07-04T15:41:58.976Z,7.17
2018-07-04T15:44:45.484Z,7.40
2018-07-04T15:47:32.151Z,7.37
2018-07-04T15:50:18.849Z,6.80
2018-07-04T15:53:05.749Z,8.03
2018-07-04T15:55:52.204Z,7.80
2018-07-04T15:58:38.852Z,8.77
2018-07-04T16:01:25.496Z,8.47
2018-07-04T16:04:12.033Z,6.90
2018-07-04T16:06:58.665Z,7.03
2018-07-04T16:09:45.372Z,7.37
2018-07-04T16:12:31.848Z,6.30
2018-07-04T16:15:18.476Z,5.30
2018-07-04T16:18:05.123Z,5.23
2018-07-04T16:20:51.791Z,4.70
2018-07-04T16:23:38.314Z,4.33
2018-07-04T16:26:24.960Z,4.63
2018-07-04T16:29:11.464Z,5.87
2018-07-04T16:31:58.113Z,6.10
2018-07-04T16:34:44.612Z,6.27
2018-07-04T16:37:31.295Z,7.20
2018-07-04T16:40:17.903Z,6.70
2018-07-04T16:43:04.475Z,6.03
2018-07-04T16:45:51.244Z,4.70
2018-07-04T16:48:37.900Z,6.83
2018-07-04T16:51:24.537Z,5.10
2018-07-04T16:54:11.182Z,3.63
2018-07-04T16:56:57.668Z,4.20
2018-07-04T16:59:44.385Z,3.73
2018-07-04T17:02:30.788Z,3.80
2018-07-04T17:05:17.445Z,3.77
2018-07-04T17:08:04.052Z,3.80
2018-07-04T17:10:50.562Z,5.10
2018-07-04T17:13:37.167Z,4.27
2018-07-04T17:16:23.845Z,4.43
2018-07-04T17:19:10.440Z,3.93
2018-07-04T17:21:57.163Z,3.67
2018-07-04T17:24:43.708Z,3.90
2018-07-04T17:27:30.364Z,4.70
2018-07-04T17:30:17.053Z,4.93
2018-07-04T17:33:03.644Z,5.37
2018-07-04T17:35:50.277Z,5.47
2018-07-04T17:38:36.944Z,6.80
2018-07-04T17:41:23.543Z,5.80
2018-07-04T17:44:10.057Z,5.87
2018-07-04T17:46:56.604Z,6.30
2018-07-04T17:49:43.256Z,5.57
2018-07-04T17:52:29.652Z,5.43
2018-07-04T17:55:16.265Z,6.13
2018-07-04T17:58:02.931Z,5.80
2018-07-04T18:00:49.324Z,6.50
2018-07-04T18:03:35.983Z,6.70
2018-07-04T18:06:22.355Z,6.87
2018-07-04T18:09:08.920Z,7.13
2018-07-04T18:11:55.452Z,7.60
2018-07-04T18:14:42.148Z,7.57
2018-07-04T18:17:28.611Z,8.40
2018-07-04T18:20:15.304Z,8.00
2018-07-04T18:23:01.824Z,7.60
2018-07-04T18:25:48.472Z,7.47
2018-07-04T18:28:35.000Z,8.57
2018-07-04T18:31:21.633Z,8.27
2018-07-04T18:34:08.289Z,9.67
2018-07-04T18:36:54.825Z,9.13
2018-07-04T18:39:41.451Z,8.57
2018-07-04T18:42:28.179Z,8.13
2018-07-04T18:45:14.520Z,7.60
2018-07-04T18:48:01.200Z,7.53
2018-07-04T18:50:47.833Z,7.20
2018-07-04T18:53:34.488Z,7.07
2018-07-04T18:56:21.084Z,7.43
2018-07-04T18:59:07.742Z,7.20
2018-07-04T19:01:54.294Z,6.60
2018-07-04T19:04:40.841Z,7.47
2018-07-04T19:07:27.439Z,7.10
2018-07-04T19:10:14.085Z,6.73
2018-07-04T19:13:00.633Z,7.07
2018-07-04T19:15:47.268Z,7.13
2018-07-04T19:18:33.732Z,6.97
2018-07-04T19:21:20.514Z,6.93
2018-07-04T19:24:07.021Z,7.60
2018-07-04T19:26:53.582Z,6.67
2018-07-04T19:29:39.988Z,7.53
2018-07-04T19:32:26.612Z,6.97
2018-07-04T19:35:13.176Z,6.93
2018-07-04T19:37:59.832Z,6.53
2018-07-04T19:40:46.368Z,6.87
2018-07-04T19:43:32.999Z,6.70
2018-07-04T19:46:19.528Z,6.53
2018-07-04T19:49:06.153Z,5.93
2018-07-04T19:51:52.715Z,6.07
2018-07-04T19:54:39.236Z,5.57
2018-07-04T19:57:25.864Z,5.83
2018-07-04T20:00:12.489Z,5.73
2018-07-04T20:02:59.164Z,5.20
2018-07-04T20:05:45.881Z,4.90
2018-07-04T20:08:32.432Z,4.80
2018-07-04T20:11:18.960Z,5.07
2018-07-04T20:14:05.691Z,5.00
2018-07-04T20:16:52.255Z,4.97
2018-07-04T20:19:38.753Z,4.73
2018-07-04T20:22:25.416Z,4.90
2018-07-04T20:25:12.190Z,4.73
2018-07-04T20:27:58.869Z,4.73
2018-07-04T20:30:45.525Z,4.40
2018-07-04T20:33:32.184Z,4.57
2018-07-04T20:36:18.761Z,4.83
2018-07-04T20:39:06.052Z,4.57
2018-07-04T20:41:52.561Z,5.00
2018-07-04T20:44:39.252Z,4.80
2018-07-04T20:47:25.785Z,4.73
2018-07-04T20:50:12.391Z,5.00
2018-07-04T20:52:58.896Z,5.13
2018-07-04T20:55:45.601Z,5.37
2018-07-04T20:58:32.230Z,5.30
2018-07-04T21:01:18.895Z,5.33
2018-07-04T21:04:05.349Z,4.60
2018-07-04T21:06:51.899Z,5.80
2018-07-04T21:09:38.488Z,5.70
2018-07-04T21:12:25.009Z,5.13
2018-07-04T21:15:11.712Z,5.63
2018-07-04T21:17:58.251Z,5.53
2018-07-04T21:20:44.952Z,5.33
2018-07-04T21:23:31.640Z,5.87
2018-07-04T21:26:18.173Z,6.13
2018-07-04T21:29:04.815Z,6.70
2018-07-04T21:31:51.391Z,6.90
2018-07-04T21:34:38.073Z,7.33
2018-07-04T21:37:24.647Z,7.00
2018-07-04T21:40:11.317Z,7.50
2018-07-04T21:42:57.788Z,7.70
2018-07-04T21:45:44.414Z,8.20
2018-07-04T21:48:31.020Z,9.50
2018-07-04T21:51:17.561Z,9.47
2018-07-04T21:54:04.088Z,8.83
2018-07-04T21:56:50.645Z,8.80
2018-07-04T21:59:37.054Z,8.50
2018-07-04T22:02:23.684Z,8.20
2018-07-04T22:05:10.394Z,8.23
2018-07-04T22:07:57.000Z,7.93
2018-07-04T22:10:43.634Z,8.07
2018-07-04T22:13:30.191Z,7.50
2018-07-04T22:16:16.860Z,7.67
2018-07-04T22:19:03.489Z,7.40
2018-07-04T22:21:50.116Z,8.07
2018-07-04T22:24:36.715Z,7.93
2018-07-04T22:27:23.232Z,7.57
2018-07-04T22:30:09.760Z,7.97
2018-07-04T22:32:56.419Z,8.37
2018-07-04T22:35:42.917Z,7.53
2018-07-04T22:38:29.588Z,7.97
2018-07-04T22:41:16.236Z,8.30
2018-07-04T22:44:02.860Z,7.60
2018-07-04T22:46:49.511Z,8.30
2018-07-04T22:49:36.046Z,8.77
2018-07-04T22:52:22.724Z,8.97
2018-07-04T22:55:09.351Z,9.13
2018-07-04T22:57:56.008Z,9.30
2018-07-04T23:00:42.680Z,9.43
2018-07-04T23:03:29.205Z,10.03
2018-07-04T23:06:16.085Z,9.70
2018-07-04T23:09:02.804Z,9.23
2018-07-04T23:11:49.352Z,9.17
2018-07-04T23:14:36.060Z,9.60
2018-07-04T23:17:22.738Z,9.90
2018-07-04T23:20:09.172Z,9.07
2018-07-04T23:22:55.702Z,10.00
2018-07-04T23:25:42.371Z,9.63
2018-07-04T23:28:29.013Z,9.20
2018-07-04T23:31:15.683Z,9.70
2018-07-04T23:34:02.168Z,9.50
2018-07-04T23:36:48.816Z,9.33
2018-07-04T23:39:35.468Z,8.60
2018-07-04T23:42:22.052Z,8.37
2018-07-04T23:45:08.681Z,8.60
2018-07-04T23:47:55.317Z,8.23
2018-07-04T23:50:41.948Z,7.80
2018-07-04T23:53:28.554Z,7.67
2018-07-04T23:56:15.228Z,7.90
2018-07-04T23:59:01.861Z,6.97
